Terminal Aerodrome Forecast
Issued by NWS

Home | Current Version | Previous Version | Text Only | Print | Product List | Glossary On
Versions: 1 2 3 4 5 6 7 8 9 10 11 12 13 14 15 16 17 18 19 20 21 22
615
FTUS44 KLZK 210530
TAFLLQ
TAF
KLLQ 210530Z 2106/2206 29010KT 6SM -RA SCT015 OVC040
      TEMPO 2106/2110 2SM RA BR OVC008
     FM211000 28005KT 3SM -RA BR OVC008
     FM211800 34006KT P6SM VCSH OVC015=

USA.gov is the U.S. government's official web portal to all federal, state and local government web resources and services.